createdAt,value
2023-10-23T00:00:10.524Z,94751.81
2023-10-23T00:03:21.746Z,94764.22
2023-10-23T00:06:30.205Z,94771.97
2023-10-23T00:09:39.747Z,94780.91
2023-10-23T00:12:48.944Z,94781.19
2023-10-23T00:15:57.180Z,94778.00
2023-10-23T00:19:05.911Z,94768.59
2023-10-23T00:22:14.676Z,94757.94
2023-10-23T00:25:24.335Z,94771.81
2023-10-23T00:28:33.140Z,94764.22
2023-10-23T00:31:41.429Z,94760.84
2023-10-23T00:34:50.160Z,94768.69
2023-10-23T00:37:58.431Z,94779.81
2023-10-23T00:41:09.435Z,94778.50
2023-10-23T00:44:18.594Z,94772.97
2023-10-23T00:47:28.159Z,94776.44
2023-10-23T00:50:36.713Z,94784.81
2023-10-23T00:53:46.152Z,94783.19
2023-10-23T00:56:56.684Z,94789.19
2023-10-23T01:00:07.072Z,94786.78
2023-10-23T01:03:16.990Z,94781.50
2023-10-23T01:06:25.286Z,94776.03
2023-10-23T01:09:33.672Z,94765.03
2023-10-23T01:12:43.339Z,94774.69
2023-10-23T01:15:52.374Z,94777.69
2023-10-23T01:19:00.782Z,94771.06
2023-10-23T01:22:09.047Z,94779.06
2023-10-23T01:25:19.140Z,94774.78
2023-10-23T01:28:27.614Z,94777.69
2023-10-23T01:31:35.830Z,94780.81
2023-10-23T01:34:44.163Z,94779.34
2023-10-23T01:37:52.676Z,94791.97
2023-10-23T01:41:02.339Z,94801.47
2023-10-23T01:44:10.967Z,94806.91
2023-10-23T01:47:19.678Z,94810.50
2023-10-23T01:50:28.017Z,94810.41
2023-10-23T01:53:36.674Z,94812.38
2023-10-23T01:56:47.154Z,94795.84
2023-10-23T01:59:55.623Z,94788.91
2023-10-23T02:03:05.612Z,94779.00
2023-10-23T02:06:14.011Z,94792.44
2023-10-23T02:09:22.556Z,94799.53
2023-10-23T02:12:34.274Z,94799.28
2023-10-23T02:15:42.646Z,94809.66
2023-10-23T02:18:51.192Z,94821.66
2023-10-23T02:21:59.791Z,94784.91
2023-10-23T02:25:09.030Z,94780.00
2023-10-23T02:28:18.759Z,94800.34
2023-10-23T02:31:27.088Z,94798.34
2023-10-23T02:34:36.311Z,94793.88
2023-10-23T02:37:44.679Z,94792.41
2023-10-23T02:40:54.075Z,94797.34
2023-10-23T02:44:03.748Z,94796.59
2023-10-23T02:47:12.124Z,94787.06
2023-10-23T02:50:21.568Z,94784.78
2023-10-23T02:53:32.489Z,94780.53
2023-10-23T02:56:41.018Z,94779.22
2023-10-23T02:59:50.670Z,94777.00
2023-10-23T03:02:59.063Z,94780.22
2023-10-23T03:06:08.141Z,94771.91
2023-10-23T03:09:16.976Z,94774.53
2023-10-23T03:12:25.783Z,94773.72
2023-10-23T03:15:37.411Z,94765.84
2023-10-23T03:18:46.219Z,94777.13
2023-10-23T03:21:54.786Z,94776.41
2023-10-23T03:25:04.418Z,94774.19
2023-10-23T03:28:13.441Z,94778.84
2023-10-23T03:31:24.151Z,94769.38
2023-10-23T03:34:32.735Z,94770.66
2023-10-23T03:37:41.354Z,94774.13
2023-10-23T03:40:59.102Z,94777.94
2023-10-23T03:44:07.830Z,94780.31
2023-10-23T03:47:18.378Z,94781.41
2023-10-23T03:50:27.195Z,94795.28
2023-10-23T03:53:35.734Z,94791.13
2023-10-23T03:56:44.392Z,94798.66
2023-10-23T03:59:52.763Z,94793.38
2023-10-23T04:03:02.804Z,94796.91
2023-10-23T04:06:11.370Z,94795.53
2023-10-23T04:09:20.415Z,94792.63
2023-10-23T04:12:29.292Z,94797.50
2023-10-23T04:15:37.932Z,94799.94
2023-10-23T04:18:47.707Z,94797.09
2023-10-23T04:21:56.206Z,94802.75
2023-10-23T04:25:04.934Z,94792.50
2023-10-23T04:28:13.129Z,94790.13
2023-10-23T04:31:21.422Z,94788.69
2023-10-23T04:34:31.287Z,94787.03
2023-10-23T04:37:40.664Z,94783.78
2023-10-23T04:40:49.296Z,94787.81
2023-10-23T04:43:57.592Z,94782.41
2023-10-23T04:47:06.200Z,94779.28
2023-10-23T04:50:17.437Z,94773.72
2023-10-23T04:53:25.768Z,94777.84
2023-10-23T04:56:34.064Z,94768.03
2023-10-23T04:59:42.947Z,94770.31
2023-10-23T05:02:51.181Z,94757.16
2023-10-23T05:06:00.781Z,94751.06
2023-10-23T05:09:09.003Z,94747.41
2023-10-23T05:12:17.253Z,94747.59
2023-10-23T05:15:32.689Z,94745.31
2023-10-23T05:18:42.011Z,94751.88
2023-10-23T05:21:52.603Z,94761.63
2023-10-23T05:25:01.301Z,94759.16
2023-10-23T05:28:09.918Z,94770.13
2023-10-23T05:31:19.007Z,94761.63
2023-10-23T05:34:28.287Z,94756.00
2023-10-23T05:37:38.787Z,94756.81
2023-10-23T05:40:47.556Z,94759.69
2023-10-23T05:43:56.266Z,94759.56
2023-10-23T05:47:05.902Z,94761.88
2023-10-23T05:50:15.320Z,94767.00
2023-10-23T05:53:25.846Z,94769.59
2023-10-23T05:56:34.518Z,94769.22
2023-10-23T05:59:43.672Z,94770.16
2023-10-23T06:02:52.582Z,94772.63
2023-10-23T06:06:02.051Z,94775.19
2023-10-23T06:09:11.891Z,94776.09
2023-10-23T06:12:20.397Z,94786.44
2023-10-23T06:15:29.383Z,94798.34
2023-10-23T06:18:40.352Z,94797.03
2023-10-23T06:21:48.592Z,94802.41
2023-10-23T06:24:58.490Z,94793.78
2023-10-23T06:28:07.129Z,94799.06
2023-10-23T06:31:15.382Z,94792.13
2023-10-23T06:34:24.042Z,94788.59
2023-10-23T06:37:33.918Z,94783.97
2023-10-23T06:40:43.947Z,94788.59
2023-10-23T06:43:52.161Z,94787.34
2023-10-23T06:47:00.684Z,94787.66
2023-10-23T06:50:11.857Z,94783.66
2023-10-23T06:53:20.512Z,94782.44
2023-10-23T06:56:30.631Z,94773.81
2023-10-23T06:59:39.278Z,94778.16
2023-10-23T07:02:51.371Z,94779.25
2023-10-23T07:05:59.749Z,94773.97
2023-10-23T07:09:08.094Z,94781.13
2023-10-23T07:12:18.071Z,94793.19
2023-10-23T07:15:26.440Z,94787.44
2023-10-23T07:18:35.019Z,94791.59
2023-10-23T07:21:43.338Z,94791.72
2023-10-23T07:24:51.534Z,94794.63
2023-10-23T07:28:01.108Z,94796.69
2023-10-23T07:31:10.392Z,94809.41
2023-10-23T07:34:18.745Z,94807.00
2023-10-23T07:37:28.419Z,94813.47
2023-10-23T07:40:44.417Z,94805.78
2023-10-23T07:43:54.046Z,94798.50
2023-10-23T07:47:02.368Z,94793.19
2023-10-23T07:50:11.638Z,94779.75
2023-10-23T07:53:19.897Z,94772.88
2023-10-23T07:56:28.166Z,94771.00
2023-10-23T07:59:38.014Z,94763.78
2023-10-23T08:02:46.772Z,94769.97
2023-10-23T08:05:55.129Z,94782.38
2023-10-23T08:09:05.039Z,94763.97
2023-10-23T08:12:15.737Z,94768.00
2023-10-23T08:15:25.375Z,94771.50
2023-10-23T08:18:39.816Z,94764.81
2023-10-23T08:21:50.557Z,94760.13
2023-10-23T08:24:59.330Z,94755.63
2023-10-23T08:28:09.397Z,94755.69
2023-10-23T08:31:34.238Z,94750.50
2023-10-23T08:34:47.811Z,94756.59
2023-10-23T08:37:57.066Z,94761.19
2023-10-23T08:41:05.984Z,94757.22
2023-10-23T08:44:14.737Z,94758.09
2023-10-23T08:47:25.209Z,94752.34
2023-10-23T08:50:36.154Z,94749.13
2023-10-23T08:54:08.795Z,94753.06
2023-10-23T08:57:21.193Z,94741.78
2023-10-23T09:00:29.684Z,94740.53
2023-10-23T09:04:02.076Z,94739.69
2023-10-23T09:07:08.266Z,94729.50
2023-10-23T09:10:17.132Z,94712.03
2023-10-23T09:13:27.676Z,94708.88
2023-10-23T09:16:37.179Z,94699.84
2023-10-23T09:19:49.770Z,94697.78
2023-10-23T09:22:58.025Z,94700.09
2023-10-23T09:26:06.248Z,94691.22
2023-10-23T09:29:14.645Z,94684.09
2023-10-23T09:32:23.880Z,94692.84
2023-10-23T09:35:35.482Z,94701.25
2023-10-23T09:38:44.809Z,94703.53
2023-10-23T09:41:54.526Z,94700.03
2023-10-23T09:45:05.613Z,94694.34
2023-10-23T09:48:14.339Z,94709.78
2023-10-23T09:51:31.579Z,94701.13
2023-10-23T09:54:43.570Z,94692.94
2023-10-23T09:58:00.560Z,94687.38
2023-10-23T10:01:12.548Z,94688.28
2023-10-23T10:04:28.618Z,94682.78
2023-10-23T10:07:53.864Z,94683.72
2023-10-23T10:11:03.344Z,94682.44
2023-10-23T10:14:13.464Z,94684.66
2023-10-23T10:17:22.903Z,94680.56
2023-10-23T10:20:32.355Z,94681.25
2023-10-23T10:23:44.106Z,94680.00
2023-10-23T10:26:53.269Z,94680.00
2023-10-23T10:30:05.641Z,94669.84
2023-10-23T10:34:26.322Z,94661.56
2023-10-23T10:36:51.542Z,94653.75
2023-10-23T10:40:12.431Z,94659.13
2023-10-23T10:43:23.243Z,94654.84
2023-10-23T10:46:32.522Z,94654.53
2023-10-23T10:49:45.811Z,94644.34
2023-10-23T10:52:54.424Z,94627.41
2023-10-23T10:56:09.411Z,94611.09
2023-10-23T10:59:24.601Z,94602.88
2023-10-23T11:02:33.525Z,94614.47
2023-10-23T11:05:48.089Z,94600.91
2023-10-23T11:08:58.642Z,94582.81
2023-10-23T11:12:10.145Z,94568.50
2023-10-23T11:15:20.002Z,94575.94
2023-10-23T11:18:29.900Z,94576.75
2023-10-23T11:21:38.150Z,94576.22
2023-10-23T11:24:48.692Z,94570.41
2023-10-23T11:27:58.900Z,94560.72
2023-10-23T11:31:07.956Z,94559.19
2023-10-23T11:34:18.435Z,94560.84
2023-10-23T11:37:27.052Z,94568.50
2023-10-23T11:40:38.424Z,94566.84
2023-10-23T11:44:01.524Z,94554.72
2023-10-23T11:47:10.698Z,94561.09
2023-10-23T11:50:23.007Z,94564.00
2023-10-23T11:53:34.896Z,94557.88
2023-10-23T11:56:44.623Z,94562.06
2023-10-23T11:59:54.707Z,94551.97
2023-10-23T12:03:05.826Z,94552.28
2023-10-23T12:06:15.408Z,94559.63
2023-10-23T12:09:23.967Z,94560.28
2023-10-23T12:12:32.396Z,94551.56
2023-10-23T12:15:42.312Z,94551.22
2023-10-23T12:18:51.184Z,94543.81
2023-10-23T12:22:00.205Z,94539.19
2023-10-23T12:25:11.040Z,94525.75
2023-10-23T12:28:19.737Z,94528.06
2023-10-23T12:31:30.070Z,94524.66
2023-10-23T12:34:38.581Z,94524.34
2023-10-23T12:37:47.052Z,94526.94
2023-10-23T12:40:55.656Z,94528.88
2023-10-23T12:44:04.665Z,94535.31
2023-10-23T12:47:15.649Z,94536.34
2023-10-23T12:50:24.017Z,94534.41
2023-10-23T12:53:32.286Z,94524.56
2023-10-23T12:56:43.578Z,94515.63
2023-10-23T12:59:51.917Z,94510.38
2023-10-23T13:03:01.670Z,94519.81
2023-10-23T13:06:10.061Z,94514.28
2023-10-23T13:09:18.672Z,94523.94
2023-10-23T13:12:27.510Z,94517.25
2023-10-23T13:15:36.891Z,94510.81
2023-10-23T13:18:53.547Z,94502.50
2023-10-23T13:22:02.795Z,94485.25
2023-10-23T13:25:20.355Z,94476.63
2023-10-23T13:28:28.815Z,94473.34
2023-10-23T13:31:37.321Z,94474.50
2023-10-23T13:34:47.065Z,94462.19
2023-10-23T13:37:55.928Z,94460.34
2023-10-23T13:41:06.830Z,94477.28
2023-10-23T13:44:15.162Z,94473.19
2023-10-23T13:47:23.502Z,94461.31
2023-10-23T13:50:35.715Z,94460.69
2023-10-23T13:53:45.515Z,94457.25
2023-10-23T13:56:53.974Z,94446.69
2023-10-23T14:00:02.268Z,94435.03
2023-10-23T14:03:20.233Z,94435.06
2023-10-23T14:06:30.940Z,94425.91
2023-10-23T14:09:46.137Z,94420.59
2023-10-23T14:12:56.333Z,94419.47
2023-10-23T14:16:05.721Z,94400.97
2023-10-23T14:19:20.067Z,94388.97
2023-10-23T14:22:39.176Z,94383.09
2023-10-23T14:25:47.456Z,94388.16
2023-10-23T14:28:57.084Z,94397.34
2023-10-23T14:32:06.299Z,94383.72
2023-10-23T14:35:14.666Z,94380.03
2023-10-23T14:38:25.726Z,94378.53
2023-10-23T14:41:35.695Z,94381.03
2023-10-23T14:44:44.234Z,94371.00
2023-10-23T14:47:53.332Z,94369.84
2023-10-23T14:51:03.644Z,94360.72
2023-10-23T14:54:13.538Z,94357.03
2023-10-23T14:57:22.329Z,94354.53
2023-10-23T15:00:34.481Z,94338.19
2023-10-23T15:03:44.154Z,94320.31
2023-10-23T15:06:52.547Z,94326.94
2023-10-23T15:10:02.678Z,94330.84
2023-10-23T15:13:11.909Z,94329.97
2023-10-23T15:16:20.390Z,94341.53
2023-10-23T15:19:30.220Z,94337.84
2023-10-23T15:22:39.033Z,94345.03
2023-10-23T15:25:50.715Z,94352.88
2023-10-23T15:28:59.715Z,94340.75
2023-10-23T15:32:09.068Z,94329.31
2023-10-23T15:35:17.847Z,94321.84
2023-10-23T15:38:30.484Z,94320.06
2023-10-23T15:41:40.512Z,94313.22
2023-10-23T15:44:50.103Z,94318.13
2023-10-23T15:48:01.042Z,94317.94
2023-10-23T15:51:10.334Z,94317.16
2023-10-23T15:54:19.105Z,94324.16
2023-10-23T15:57:30.284Z,94319.66
2023-10-23T16:00:38.781Z,94308.84
2023-10-23T16:03:47.361Z,94303.25
2023-10-23T16:06:55.803Z,94296.47
2023-10-23T16:10:06.719Z,94294.59
2023-10-23T16:13:19.381Z,94295.63
2023-10-23T16:16:28.505Z,94298.41
2023-10-23T16:19:36.901Z,94295.16
2023-10-23T16:22:46.082Z,94292.97
2023-10-23T16:25:57.272Z,94283.81
2023-10-23T16:29:07.751Z,94275.56
2023-10-23T16:32:18.236Z,94281.59
2023-10-23T16:35:29.536Z,94264.88
2023-10-23T16:38:38.160Z,94253.28
2023-10-23T16:41:48.371Z,94264.97
2023-10-23T16:44:58.102Z,94269.13
2023-10-23T16:48:07.425Z,94272.19
2023-10-23T16:51:15.830Z,94267.88
2023-10-23T16:54:24.252Z,94279.34
2023-10-23T16:57:34.123Z,94269.13
2023-10-23T17:00:43.924Z,94268.66
2023-10-23T17:03:52.337Z,94272.72
2023-10-23T17:07:00.978Z,94267.88
2023-10-23T17:10:10.223Z,94251.03
2023-10-23T17:13:18.660Z,94250.88
2023-10-23T17:16:29.503Z,94255.47
2023-10-23T17:19:39.282Z,94255.47
2023-10-23T17:22:48.082Z,94255.66
2023-10-23T17:25:59.205Z,94255.66
2023-10-23T17:29:07.568Z,94248.22
2023-10-23T17:32:18.014Z,94258.59
2023-10-23T17:35:27.667Z,94254.41
2023-10-23T17:38:37.225Z,94248.28
2023-10-23T17:41:50.756Z,94254.16
2023-10-23T17:45:01.179Z,94242.88
2023-10-23T17:48:11.176Z,94240.69
2023-10-23T17:51:23.084Z,94231.78
2023-10-23T17:54:31.506Z,94224.00
2023-10-23T17:57:39.976Z,94217.69
2023-10-23T18:00:48.836Z,94222.84
2023-10-23T18:03:59.503Z,94217.53
2023-10-23T18:07:08.303Z,94209.78
2023-10-23T18:10:17.421Z,94199.34
2023-10-23T18:13:25.761Z,94202.13
2023-10-23T18:16:34.468Z,94195.84
2023-10-23T18:19:44.936Z,94199.69
2023-10-23T18:22:56.014Z,94209.69
2023-10-23T18:26:04.707Z,94197.59
2023-10-23T18:29:14.078Z,94189.59
2023-10-23T18:32:25.248Z,94176.16
2023-10-23T18:35:38.517Z,94178.66
2023-10-23T18:38:47.661Z,94184.38
2023-10-23T18:41:56.461Z,94184.25
2023-10-23T18:45:06.744Z,94171.13
2023-10-23T18:48:15.648Z,94179.28
2023-10-23T18:51:25.983Z,94175.16
2023-10-23T18:54:37.496Z,94168.91
2023-10-23T18:57:45.974Z,94169.63
2023-10-23T19:00:54.621Z,94175.88
2023-10-23T19:04:03.084Z,94171.88
2023-10-23T19:07:13.061Z,94178.75
2023-10-23T19:10:22.562Z,94174.47
2023-10-23T19:13:31.327Z,94165.91
2023-10-23T19:16:39.778Z,94176.25
2023-10-23T19:19:48.223Z,94172.81
2023-10-23T19:22:58.298Z,94168.88
2023-10-23T19:26:07.040Z,94167.81
2023-10-23T19:29:15.328Z,94157.16
2023-10-23T19:32:24.540Z,94144.88
2023-10-23T19:35:34.620Z,94156.59
2023-10-23T19:38:45.669Z,94159.59
2023-10-23T19:41:59.701Z,94158.69
2023-10-23T19:45:10.043Z,94151.78
2023-10-23T19:48:19.496Z,94157.13
2023-10-23T19:51:30.397Z,94150.75
2023-10-23T19:54:48.777Z,94138.06
2023-10-23T19:57:59.529Z,94141.22
2023-10-23T20:01:08.250Z,94151.41
2023-10-23T20:04:16.885Z,94140.31
2023-10-23T20:07:25.582Z,94142.59
2023-10-23T20:10:35.506Z,94146.53
2023-10-23T20:13:44.394Z,94153.25
2023-10-23T20:16:56.029Z,94149.25
2023-10-23T20:20:06.455Z,94158.16
2023-10-23T20:23:14.815Z,94166.97
2023-10-23T20:26:25.127Z,94165.28
2023-10-23T20:29:33.616Z,94172.06
2023-10-23T20:32:42.529Z,94168.03
2023-10-23T20:35:50.991Z,94171.19
2023-10-23T20:39:00.189Z,94172.53
2023-10-23T20:42:09.841Z,94177.78
2023-10-23T20:45:18.470Z,94170.91
2023-10-23T20:48:26.746Z,94158.69
2023-10-23T20:51:35.003Z,94168.75
2023-10-23T20:54:43.307Z,94168.28
2023-10-23T20:57:52.834Z,94162.16
2023-10-23T21:01:07.110Z,94165.94
2023-10-23T21:04:15.916Z,94153.00
2023-10-23T21:07:24.272Z,94151.81
2023-10-23T21:10:32.697Z,94142.84
2023-10-23T21:13:42.457Z,94144.47
2023-10-23T21:16:51.300Z,94138.25
2023-10-23T21:19:59.669Z,94134.56
2023-10-23T21:23:08.607Z,94140.78
2023-10-23T21:26:16.978Z,94138.94
2023-10-23T21:29:27.362Z,94139.97
2023-10-23T21:32:35.781Z,94147.88
2023-10-23T21:35:43.997Z,94152.34
2023-10-23T21:38:52.217Z,94152.34
2023-10-23T21:42:01.184Z,94151.66
2023-10-23T21:45:11.555Z,94155.78
2023-10-23T21:48:19.964Z,94156.75
2023-10-23T21:51:28.399Z,94155.50
2023-10-23T21:54:37.541Z,94154.22
2023-10-23T21:57:46.572Z,94160.03
2023-10-23T22:00:57.220Z,94150.41
2023-10-23T22:04:08.244Z,94141.97
2023-10-23T22:07:17.307Z,94137.53
2023-10-23T22:10:28.060Z,94131.69
2023-10-23T22:13:37.523Z,94122.44
2023-10-23T22:16:50.349Z,94121.25
2023-10-23T22:19:58.816Z,94127.59
2023-10-23T22:23:07.357Z,94129.25
2023-10-23T22:26:15.722Z,94124.38
2023-10-23T22:29:23.941Z,94129.09
2023-10-23T22:32:34.536Z,94126.00
2023-10-23T22:35:42.888Z,94128.38
2023-10-23T22:38:51.230Z,94126.44
2023-10-23T22:41:59.548Z,94129.09
2023-10-23T22:45:10.209Z,94138.25
2023-10-23T22:48:20.075Z,94155.13
2023-10-23T22:51:29.115Z,94155.94
2023-10-23T22:54:38.149Z,94156.97
2023-10-23T22:57:48.208Z,94158.53
2023-10-23T23:00:57.792Z,94162.06
2023-10-23T23:04:09.568Z,94166.59
2023-10-23T23:07:20.849Z,94161.19
2023-10-23T23:10:29.842Z,94170.59
2023-10-23T23:13:38.821Z,94176.31
2023-10-23T23:16:51.002Z,94180.50
2023-10-23T23:20:04.833Z,94186.31
2023-10-23T23:23:13.038Z,94199.00
2023-10-23T23:26:21.833Z,94191.31
2023-10-23T23:29:30.218Z,94196.63
2023-10-23T23:32:38.771Z,94217.91
2023-10-23T23:35:48.387Z,94218.34
2023-10-23T23:38:56.657Z,94221.63
2023-10-23T23:42:05.856Z,94226.06
2023-10-23T23:45:14.066Z,94230.22
2023-10-23T23:48:22.343Z,94239.56
2023-10-23T23:51:31.961Z,94229.13
2023-10-23T23:54:40.382Z,94222.91
2023-10-23T23:57:49.395Z,94211.03
